Time;durP1;ratioP1;P1;durP2;ratioP2;P2;SDS_P1;SDS_P2;PMS_P1;PMS_P2;Temp;Humidity;BMP_temperature;BMP_pressure;BME280_temperature;BME280_humidity;BME280_pressure;Samples;Min_cycle;Max_cycle;Signal;HPM_P1;HPM_P2
2023/01/14 00:00:11;;;;;;;11.05;2.00;;;7.40;99.90;;;;;;5064506;28;20044;-66
2023/01/14 00:02:36;;;;;;;14.43;2.00;;;7.30;99.90;;;;;;5081521;28;20063;-66
2023/01/14 00:05:02;;;;;;;16.75;2.25;;;7.30;99.90;;;;;;5062639;28;20553;-66
2023/01/14 00:07:28;;;;;;;18.25;1.77;;;7.30;99.90;;;;;;5043351;28;20068;-66
2023/01/14 00:09:54;;;;;;;15.82;2.30;;;7.20;99.90;;;;;;5064697;28;20036;-65
2023/01/14 00:12:20;;;;;;;13.70;2.80;;;7.30;99.90;;;;;;5057744;28;20036;-65
2023/01/14 00:14:45;;;;;;;17.65;2.28;;;7.20;99.90;;;;;;5048086;28;20747;-66
2023/01/14 00:17:11;;;;;;;18.83;2.67;;;7.30;99.90;;;;;;5059830;28;20040;-66
2023/01/14 00:19:37;;;;;;;18.90;3.10;;;7.30;99.90;;;;;;5062476;28;20061;-65
2023/01/14 00:22:03;;;;;;;16.95;2.58;;;7.30;99.90;;;;;;5051943;28;20094;-65
2023/01/14 00:24:29;;;;;;;15.38;2.15;;;7.30;99.90;;;;;;5058501;28;20045;-66
2023/01/14 00:26:56;;;;;;;13.82;2.65;;;7.30;99.90;;;;;;5060163;28;20041;-66
2023/01/14 00:29:30;;;;;;;18.48;2.78;;;7.30;99.90;;;;;;5064939;28;20098;-65
2023/01/14 00:31:58;;;;;;;19.33;2.83;;;7.30;99.90;;;;;;5064229;28;20507;-66
2023/01/14 00:34:26;;;;;;;16.52;2.97;;;7.30;99.90;;;;;;5043842;28;20132;-66
2023/01/14 00:36:52;;;;;;;14.70;2.55;;;7.30;99.90;;;;;;5059532;28;20045;-66
2023/01/14 00:39:18;;;;;;;14.50;2.60;;;7.30;99.90;;;;;;5043192;28;20115;-65
2023/01/14 00:41:44;;;;;;;18.52;2.50;;;7.30;99.90;;;;;;5040736;28;20123;-65
2023/01/14 00:44:10;;;;;;;19.33;2.65;;;7.40;99.90;;;;;;5056845;28;20041;-65
2023/01/14 00:46:37;;;;;;;19.35;2.65;;;7.40;99.90;;;;;;5064362;28;20032;-66
2023/01/14 00:49:05;;;;;;;15.90;2.75;;;7.30;99.90;;;;;;5065321;28;20464;-66
2023/01/14 00:51:32;;;;;;;15.88;2.45;;;7.30;99.90;;;;;;5058810;28;20052;-65
2023/01/14 00:53:58;;;;;;;17.27;2.60;;;7.30;99.90;;;;;;5056611;28;20131;-65
2023/01/14 00:56:24;;;;;;;16.08;2.28;;;7.30;99.90;;;;;;5060759;28;20040;-66
2023/01/14 00:58:50;;;;;;;15.27;2.03;;;7.30;99.90;;;;;;5043990;28;20059;-66
2023/01/14 01:01:17;;;;;;;15.52;3.00;;;7.30;99.90;;;;;;5043841;28;20136;-66
2023/01/14 01:03:46;;;;;;;15.20;2.00;;;7.30;99.90;;;;;;5040672;28;20076;-65
2023/01/14 01:06:13;;;;;;;12.90;1.77;;;7.30;99.90;;;;;;5040471;28;20124;-66
2023/01/14 01:08:39;;;;;;;11.90;2.53;;;7.30;99.90;;;;;;5054631;28;20076;-65
2023/01/14 01:11:06;;;;;;;13.07;2.40;;;7.30;99.90;;;;;;5046765;28;20439;-66
2023/01/14 01:13:32;;;;;;;15.55;3.03;;;7.30;99.90;;;;;;5058937;28;20143;-66
2023/01/14 01:16:03;;;;;;;13.23;2.00;;;7.20;99.90;;;;;;5058421;28;20116;-66
2023/01/14 01:18:29;;;;;;;14.27;2.17;;;7.20;99.90;;;;;;5055081;28;20052;-65
2023/01/14 01:21:07;;;;;;;9.38;1.70;;;7.20;99.90;;;;;;5038886;28;20052;-66
2023/01/14 01:23:33;;;;;;;16.63;2.20;;;7.20;99.90;;;;;;5055557;28;20476;-65
2023/01/14 01:26:00;;;;;;;14.68;2.20;;;7.20;99.90;;;;;;5059352;28;20032;-66
2023/01/14 01:28:26;;;;;;;14.27;2.00;;;7.30;99.90;;;;;;5058110;28;20614;-65
2023/01/14 01:30:51;;;;;;;15.38;2.40;;;7.30;99.90;;;;;;5060551;28;20033;-65
2023/01/14 01:33:17;;;;;;;9.50;1.98;;;7.30;99.90;;;;;;5046443;28;20041;-66
2023/01/14 01:35:43;;;;;;;10.35;2.25;;;7.30;99.90;;;;;;5056674;28;20037;-65
2023/01/14 01:38:08;;;;;;;14.23;2.65;;;7.30;99.90;;;;;;5037903;28;20091;-65
2023/01/14 01:40:34;;;;;;;15.13;2.22;;;7.30;99.90;;;;;;5041304;28;20049;-66
2023/01/14 01:43:00;;;;;;;14.52;2.20;;;7.40;99.90;;;;;;5060990;28;20049;-66
2023/01/14 01:45:38;;;;;;;15.68;2.35;;;7.30;99.90;;;;;;5056769;28;20032;-65
2023/01/14 01:48:12;;;;;;;14.43;2.50;;;7.40;99.90;;;;;;5054835;28;20041;-65
2023/01/14 01:50:38;;;;;;;15.32;2.17;;;7.40;99.90;;;;;;5058019;28;20041;-66
2023/01/14 01:53:05;;;;;;;16.08;2.65;;;7.40;99.90;;;;;;5039682;28;20120;-66
2023/01/14 01:55:35;;;;;;;13.57;2.58;;;7.40;99.90;;;;;;5056427;28;20037;-66
2023/01/14 01:58:02;;;;;;;18.23;2.60;;;7.40;99.90;;;;;;5057091;28;20041;-66
2023/01/14 02:00:27;;;;;;;17.50;2.22;;;7.40;99.90;;;;;;5059251;28;20190;-66
2023/01/14 02:02:59;;;;;;;23.77;2.80;;;7.40;99.90;;;;;;5043197;28;20128;-66
2023/01/14 02:05:24;;;;;;;20.42;3.35;;;7.40;99.90;;;;;;5055304;28;20538;-66
2023/01/14 02:07:50;;;;;;;18.00;2.85;;;7.40;99.90;;;;;;5076646;28;20040;-65
2023/01/14 02:10:17;;;;;;;12.02;2.53;;;7.40;99.90;;;;;;5079633;28;20032;-66
2023/01/14 02:12:57;;;;;;;13.05;2.60;;;7.40;99.90;;;;;;5081205;28;20048;-66
2023/01/14 02:15:42;;;;;;;15.70;2.47;;;7.40;99.90;;;;;;5079531;28;20036;-66
2023/01/14 02:18:08;;;;;;;13.43;2.40;;;7.40;99.90;;;;;;5077932;28;20046;-66
2023/01/14 02:20:57;;;;;;;18.65;3.28;;;7.30;99.90;;;;;;5059238;28;20048;-65
2023/01/14 02:24:00;;;;;;;18.27;2.40;;;7.40;99.90;;;;;;5079219;28;20044;-66
2023/01/14 02:26:51;;;;;;;21.60;2.72;;;7.30;99.90;;;;;;5060316;28;20143;-66
2023/01/14 02:29:52;;;;;;;17.10;2.60;;;7.40;99.90;;;;;;5084856;28;20590;-65
2023/01/14 02:32:44;;;;;;;18.05;2.70;;;7.40;99.90;;;;;;5084547;28;20152;-66
2023/01/14 02:35:42;;;;;;;17.83;2.28;;;7.40;99.90;;;;;;5085596;28;20526;-65
2023/01/14 02:38:28;;;;;;;16.65;2.67;;;7.40;99.90;;;;;;5060980;28;21427;-66
2023/01/14 02:41:17;;;;;;;19.65;3.00;;;7.40;99.90;;;;;;5065524;28;20036;-66
2023/01/14 02:44:10;;;;;;;16.80;2.80;;;7.40;99.90;;;;;;5065913;28;20045;-65
2023/01/14 02:46:45;;;;;;;20.50;3.15;;;7.40;99.90;;;;;;5077195;28;20032;-67
2023/01/14 02:49:14;;;;;;;21.30;3.15;;;7.40;99.90;;;;;;5066199;28;20059;-66
2023/01/14 02:51:41;;;;;;;18.08;2.45;;;7.30;99.90;;;;;;5080696;28;20082;-66
2023/01/14 02:54:07;;;;;;;17.08;2.78;;;7.30;99.90;;;;;;5082310;28;20033;-66
2023/01/14 02:56:34;;;;;;;17.13;2.97;;;7.30;99.90;;;;;;5063394;28;20124;-65
2023/01/14 02:59:22;;;;;;;21.42;3.63;;;7.20;99.90;;;;;;5062058;28;20087;-66
2023/01/14 03:02:12;;;;;;;20.65;2.55;;;7.10;99.90;;;;;;5082120;28;20032;-66
2023/01/14 03:04:57;;;;;;;21.98;3.63;;;7.00;99.90;;;;;;5071678;28;20060;-66
2023/01/14 03:07:45;;;;;;;19.87;3.00;;;6.90;99.90;;;;;;5065531;28;20497;-66
2023/01/14 03:10:26;;;;;;;22.55;3.35;;;6.90;99.90;;;;;;5065208;28;20391;-66
2023/01/14 03:13:24;;;;;;;21.63;3.38;;;6.90;99.90;;;;;;5060407;28;20171;-67
2023/01/14 03:15:54;;;;;;;16.67;2.28;;;6.80;99.90;;;;;;5063618;28;20572;-66
2023/01/14 03:18:34;;;;;;;14.68;2.58;;;6.70;99.90;;;;;;5039558;28;20045;-66
2023/01/14 03:21:03;;;;;;;14.85;2.45;;;6.70;99.90;;;;;;5044482;28;20119;-66
2023/01/14 03:23:34;;;;;;;13.57;2.90;;;6.60;99.90;;;;;;5060658;28;20071;-66
2023/01/14 03:26:03;;;;;;;21.60;2.38;;;6.50;99.90;;;;;;5064488;28;20131;-66
2023/01/14 03:28:35;;;;;;;15.45;2.53;;;6.50;99.90;;;;;;5061170;28;20040;-66
2023/01/14 03:31:06;;;;;;;19.60;3.30;;;6.40;99.90;;;;;;5045855;28;20045;-66
2023/01/14 03:33:39;;;;;;;19.27;3.10;;;6.30;99.90;;;;;;5041652;28;20037;-66
2023/01/14 03:36:06;;;;;;;20.80;2.33;;;6.30;99.90;;;;;;5043747;28;20041;-66
2023/01/14 03:38:43;;;;;;;20.13;2.80;;;6.20;99.90;;;;;;5043523;28;20037;-66
2023/01/14 03:42:17;;;;;;;13.85;2.38;;;6.10;99.90;;;;;;5042253;28;20473;-67
2023/01/14 03:44:01;;;;;;;19.48;2.10;;;6.10;99.90;;;;;;5053692;28;20553;-66
2023/01/14 03:46:27;;;;;;;17.48;2.97;;;6.00;99.90;;;;;;5066340;28;20477;-66
2023/01/14 03:48:53;;;;;;;16.23;2.78;;;6.00;99.90;;;;;;5042837;28;20052;-67
2023/01/14 03:51:27;;;;;;;16.52;2.40;;;6.00;99.90;;;;;;5067883;28;20047;-65
2023/01/14 03:54:18;;;;;;;16.25;2.70;;;6.00;99.90;;;;;;5060911;28;20075;-66
2023/01/14 03:57:08;;;;;;;19.48;2.60;;;6.00;99.90;;;;;;5063208;28;20075;-66
2023/01/14 04:00:07;;;;;;;20.80;3.28;;;5.90;99.90;;;;;;5056920;28;20554;-66
2023/01/14 04:02:34;;;;;;;17.92;2.53;;;5.90;99.90;;;;;;5030206;28;20048;-66
2023/01/14 04:05:00;;;;;;;21.17;2.88;;;5.80;99.90;;;;;;5062013;28;20052;-66
2023/01/14 04:07:26;;;;;;;13.98;2.33;;;5.80;99.90;;;;;;5067415;28;20041;-66
2023/01/14 04:09:52;;;;;;;16.52;2.10;;;5.80;99.90;;;;;;5057218;28;20112;-66
2023/01/14 04:12:18;;;;;;;18.80;3.17;;;5.80;99.90;;;;;;5062057;28;20148;-66
2023/01/14 04:17:48;;;;;;;15.02;2.10;;;5.80;99.90;;;;;;4988621;28;20414;-66
2023/01/14 04:20:14;;;;;;;16.70;2.38;;;5.80;99.90;;;;;;4988894;28;20042;-66
2023/01/14 04:22:39;;;;;;;18.92;2.85;;;5.80;99.90;;;;;;5010688;28;20170;-66
2023/01/14 04:25:05;;;;;;;12.38;2.47;;;5.80;99.90;;;;;;5056190;28;20029;-65
2023/01/14 04:27:31;;;;;;;14.68;2.08;;;5.70;99.90;;;;;;5061970;28;20119;-66
2023/01/14 04:29:56;;;;;;;15.57;2.40;;;5.80;99.90;;;;;;5053061;28;20597;-66
2023/01/14 04:32:22;;;;;;;14.23;2.38;;;5.70;99.90;;;;;;5068068;28;20207;-66
2023/01/14 04:34:48;;;;;;;16.40;2.28;;;5.70;99.90;;;;;;5064041;28;20123;-66
2023/01/14 04:37:13;;;;;;;15.82;2.30;;;5.70;99.90;;;;;;5063491;28;20024;-66
2023/01/14 04:39:39;;;;;;;16.65;3.15;;;5.70;99.90;;;;;;5067204;28;20047;-66
2023/01/14 04:44:49;;;;;;;24.70;2.67;;;5.70;99.90;;;;;;5047914;28;20056;-65
2023/01/14 04:47:16;;;;;;;15.30;2.60;;;5.70;99.90;;;;;;5053066;28;20349;-65
2023/01/14 04:49:42;;;;;;;14.88;2.30;;;5.70;99.90;;;;;;5056981;28;20176;-66
2023/01/14 04:52:08;;;;;;;14.60;2.95;;;5.60;99.90;;;;;;5053333;28;20060;-65
2023/01/14 04:54:33;;;;;;;20.35;3.10;;;5.70;99.90;;;;;;5058320;28;20170;-66
2023/01/14 04:56:59;;;;;;;17.42;2.47;;;5.70;99.90;;;;;;5040234;28;20075;-66
2023/01/14 04:59:25;;;;;;;17.27;2.97;;;5.70;99.90;;;;;;5057270;28;20036;-66
2023/01/14 05:01:50;;;;;;;18.50;3.47;;;5.70;99.90;;;;;;5072156;28;20430;-66
2023/01/14 05:04:16;;;;;;;12.43;2.42;;;5.70;99.90;;;;;;5059753;28;20048;-66
2023/01/14 05:06:42;;;;;;;18.50;2.92;;;5.70;99.90;;;;;;5084612;28;20040;-66
2023/01/14 05:09:08;;;;;;;24.35;3.20;;;5.70;99.90;;;;;;5082144;28;20028;-66
2023/01/14 05:11:34;;;;;;;22.77;3.60;;;5.70;99.90;;;;;;5085169;28;20136;-66
2023/01/14 05:13:59;;;;;;;24.15;3.30;;;5.60;99.90;;;;;;5069482;28;20075;-66
2023/01/14 05:16:26;;;;;;;15.20;2.90;;;5.70;99.90;;;;;;5049242;28;20043;-66
2023/01/14 05:18:53;;;;;;;21.80;3.55;;;5.70;99.90;;;;;;5079454;28;20108;-66
2023/01/14 05:21:19;;;;;;;20.13;3.70;;;5.70;99.90;;;;;;5086275;28;20036;-66
2023/01/14 05:23:45;;;;;;;16.33;2.97;;;5.70;99.90;;;;;;5082296;28;20044;-66
2023/01/14 05:26:11;;;;;;;20.30;3.78;;;5.70;99.90;;;;;;5082939;28;20200;-66
2023/01/14 05:28:37;;;;;;;21.05;3.40;;;5.70;99.90;;;;;;5079553;28;20066;-66
2023/01/14 05:31:04;;;;;;;26.30;3.78;;;5.70;99.90;;;;;;5086178;28;20040;-66
2023/01/14 05:33:30;;;;;;;22.08;3.30;;;5.70;99.90;;;;;;5049369;28;20074;-66
2023/01/14 05:35:57;;;;;;;21.75;3.53;;;5.70;99.90;;;;;;5082646;28;20036;-66
2023/01/14 05:38:23;;;;;;;19.70;3.38;;;5.60;99.90;;;;;;5064609;28;20430;-66
2023/01/14 05:40:49;;;;;;;24.65;4.03;;;5.70;99.90;;;;;;5084086;28;20078;-66
2023/01/14 05:46:06;;;;;;;20.47;4.00;;;5.70;99.90;;;;;;5064157;28;20116;-66
2023/01/14 05:48:32;;;;;;;21.45;4.20;;;5.70;99.90;;;;;;5081148;28;20040;-67
2023/01/14 05:50:59;;;;;;;20.77;3.45;;;5.70;99.90;;;;;;5064152;28;20044;-66
2023/01/14 05:53:29;;;;;;;20.17;3.80;;;5.70;99.90;;;;;;5086606;28;20102;-66
2023/01/14 05:55:57;;;;;;;20.50;3.35;;;5.70;99.90;;;;;;5084828;28;20036;-66
2023/01/14 05:58:23;;;;;;;22.50;4.22;;;5.70;99.90;;;;;;5051991;28;20036;-66
2023/01/14 06:06:50;;;;;;;26.75;4.82;;;5.60;99.90;;;;;;5086582;28;20077;-66
2023/01/14 06:09:17;;;;;;;26.05;5.30;;;5.70;99.90;;;;;;5068060;28;20086;-66
2023/01/14 06:11:47;;;;;;;26.20;5.68;;;5.60;99.90;;;;;;5084828;28;20040;-66
2023/01/14 06:14:12;;;;;;;25.13;5.35;;;5.60;99.90;;;;;;5064611;28;20413;-66
2023/01/14 06:16:41;;;;;;;24.38;5.55;;;5.60;99.90;;;;;;5066990;28;20051;-66
2023/01/14 06:19:12;;;;;;;31.30;5.65;;;5.60;99.90;;;;;;5069948;28;20040;-66
2023/01/14 06:21:39;;;;;;;28.90;5.90;;;5.60;99.90;;;;;;5070038;28;20040;-66
2023/01/14 06:24:06;;;;;;;27.50;5.65;;;5.60;99.90;;;;;;5087145;28;20322;-66
2023/01/14 06:26:33;;;;;;;25.63;4.88;;;5.60;99.90;;;;;;5069162;28;20036;-66
2023/01/14 06:29:04;;;;;;;26.05;5.32;;;5.60;99.90;;;;;;5085945;28;20047;-66
2023/01/14 06:31:30;;;;;;;27.05;5.70;;;5.60;99.90;;;;;;5068373;28;20044;-66
2023/01/14 06:33:57;;;;;;;30.30;7.70;;;5.60;99.90;;;;;;5063921;28;20087;-66
2023/01/14 06:36:23;;;;;;;32.40;5.28;;;5.60;99.90;;;;;;5088833;28;20048;-66
2023/01/14 06:38:49;;;;;;;33.25;6.03;;;5.70;99.90;;;;;;5089550;28;20039;-66
2023/01/14 06:41:15;;;;;;;32.45;6.05;;;5.70;99.90;;;;;;5054795;28;20032;-66
2023/01/14 06:43:42;;;;;;;30.27;5.90;;;5.70;99.90;;;;;;5065587;28;20037;-66
2023/01/14 06:46:11;;;;;;;26.63;5.10;;;5.80;99.90;;;;;;5062817;28;20114;-66
2023/01/14 06:48:37;;;;;;;40.40;6.57;;;5.70;99.90;;;;;;5064759;28;20052;-66
2023/01/14 06:51:08;;;;;;;26.63;6.07;;;5.80;99.90;;;;;;5068857;28;20466;-66
2023/01/14 06:53:35;;;;;;;27.35;5.30;;;5.80;99.90;;;;;;5078425;28;20036;-66
2023/01/14 06:56:03;;;;;;;31.73;5.20;;;5.80;99.90;;;;;;5078269;28;20498;-66
2023/01/14 06:58:29;;;;;;;33.95;5.63;;;5.80;99.90;;;;;;5064578;28;20051;-66
2023/01/14 07:00:56;;;;;;;30.95;5.43;;;5.80;99.90;;;;;;5087485;28;20433;-67
2023/01/14 07:03:22;;;;;;;29.42;5.50;;;5.80;99.90;;;;;;5084858;28;20392;-66
2023/01/14 07:05:47;;;;;;;28.48;5.40;;;5.90;99.90;;;;;;5058152;28;20122;-66
2023/01/14 07:08:13;;;;;;;27.77;5.57;;;5.90;99.90;;;;;;5070435;28;20476;-65
2023/01/14 07:10:39;;;;;;;27.33;4.65;;;5.90;99.90;;;;;;5071018;28;20068;-66
2023/01/14 07:13:04;;;;;;;25.00;5.35;;;5.90;99.90;;;;;;5064083;28;20040;-66
2023/01/14 07:15:30;;;;;;;32.38;5.43;;;5.90;99.90;;;;;;5041455;28;20354;-65
2023/01/14 07:17:56;;;;;;;28.33;5.25;;;6.00;99.90;;;;;;5050714;28;20158;-66
2023/01/14 07:20:22;;;;;;;22.67;5.05;;;5.90;99.90;;;;;;5051230;28;20029;-65
2023/01/14 07:22:47;;;;;;;37.72;5.93;;;6.00;99.90;;;;;;5067913;28;20119;-66
2023/01/14 07:25:13;;;;;;;30.95;6.68;;;6.00;99.90;;;;;;5072323;28;20037;-65
2023/01/14 07:27:39;;;;;;;31.95;6.22;;;6.00;99.90;;;;;;5052866;28;20139;-65
2023/01/14 07:30:05;;;;;;;32.42;5.43;;;6.00;99.90;;;;;;5050123;28;20443;-65
2023/01/14 07:32:34;;;;;;;29.30;5.50;;;6.10;99.90;;;;;;5070328;28;20101;-66
2023/01/14 07:35:00;;;;;;;30.20;5.47;;;6.10;99.90;;;;;;5052692;28;20064;-66
2023/01/14 07:37:26;;;;;;;28.63;6.07;;;6.10;99.90;;;;;;5052800;28;20037;-65
2023/01/14 07:39:51;;;;;;;32.65;5.30;;;6.10;99.90;;;;;;5057970;28;20054;-65
2023/01/14 07:42:18;;;;;;;28.88;5.13;;;6.10;99.90;;;;;;5054392;28;20850;-66
2023/01/14 07:44:44;;;;;;;22.67;4.35;;;6.10;99.90;;;;;;5071696;28;20123;-66
2023/01/14 07:47:15;;;;;;;30.13;4.88;;;6.20;99.90;;;;;;5074147;28;20119;-66
2023/01/14 07:49:41;;;;;;;29.02;5.88;;;6.20;99.90;;;;;;5056470;28;20032;-65
2023/01/14 07:52:12;;;;;;;26.25;5.97;;;6.20;99.90;;;;;;5073185;28;20072;-66
2023/01/14 07:54:38;;;;;;;36.67;5.95;;;6.20;99.90;;;;;;5050071;28;20045;-66
2023/01/14 07:57:04;;;;;;;26.52;4.78;;;6.20;99.90;;;;;;5071087;28;20472;-66
2023/01/14 07:59:30;;;;;;;19.10;4.50;;;6.20;99.90;;;;;;5054039;28;20044;-65
2023/01/14 08:01:55;;;;;;;31.80;4.63;;;6.20;99.90;;;;;;5052165;28;20107;-65
2023/01/14 08:04:21;;;;;;;27.80;4.55;;;6.30;99.90;;;;;;5069315;28;20369;-67
2023/01/14 08:06:47;;;;;;;24.70;4.65;;;6.30;99.90;;;;;;5078275;28;20130;-66
2023/01/14 08:09:13;;;;;;;25.88;4.50;;;6.30;99.90;;;;;;5085315;28;20085;-65
2023/01/14 08:11:39;;;;;;;27.15;4.60;;;6.30;99.90;;;;;;5048891;28;20112;-66
2023/01/14 08:14:05;;;;;;;31.75;4.70;;;6.30;99.90;;;;;;5084672;28;20070;-66
2023/01/14 08:16:31;;;;;;;36.10;5.88;;;6.30;99.90;;;;;;5075709;28;20173;-66
2023/01/14 08:18:56;;;;;;;24.02;4.07;;;6.30;99.90;;;;;;5064305;28;20043;-66
2023/01/14 08:21:22;;;;;;;37.20;5.57;;;6.30;99.90;;;;;;5084920;28;20039;-65
2023/01/14 08:23:48;;;;;;;25.65;4.47;;;6.20;99.90;;;;;;5050438;28;20039;-65
2023/01/14 08:26:14;;;;;;;22.70;4.40;;;6.20;99.90;;;;;;5083380;28;20044;-66
2023/01/14 08:28:40;;;;;;;27.35;4.40;;;6.20;99.90;;;;;;5065524;28;20514;-65
2023/01/14 08:31:11;;;;;;;31.70;4.10;;;6.20;99.90;;;;;;5083398;28;20354;-65
2023/01/14 08:33:38;;;;;;;31.80;4.22;;;6.10;99.90;;;;;;5065048;28;20063;-66
2023/01/14 08:36:16;;;;;;;26.50;4.15;;;6.10;99.90;;;;;;5065366;28;20535;-66
2023/01/14 08:38:44;;;;;;;31.23;5.05;;;6.10;99.90;;;;;;5057269;28;20043;-65
2023/01/14 08:41:12;;;;;;;23.67;3.80;;;6.10;99.90;;;;;;5067673;28;20040;-65
2023/01/14 08:43:39;;;;;;;24.33;4.10;;;6.10;99.90;;;;;;5082646;28;20557;-66
2023/01/14 08:46:07;;;;;;;25.25;3.85;;;6.20;99.90;;;;;;5080435;28;20040;-65
2023/01/14 08:48:34;;;;;;;16.67;3.50;;;6.10;99.90;;;;;;5083457;28;20036;-66
2023/01/14 08:51:08;;;;;;;21.52;4.15;;;6.20;99.90;;;;;;5050101;28;20055;-66
2023/01/14 08:53:37;;;;;;;;;;;6.20;99.90;;;;;;5080859;28;20127;-66
2023/01/14 08:56:05;;;;;;;31.38;4.30;;;6.10;99.90;;;;;;5063898;28;20273;-65
2023/01/14 08:58:34;;;;;;;27.27;4.22;;;6.10;99.90;;;;;;5078529;28;20036;-65
2023/01/14 09:01:02;;;;;;;25.88;3.42;;;6.10;99.90;;;;;;5085344;28;20507;-66
2023/01/14 09:03:30;;;;;;;26.77;3.85;;;6.10;99.90;;;;;;5084318;28;20086;-66
2023/01/14 09:05:57;;;;;;;27.17;4.13;;;6.10;99.90;;;;;;5046294;28;20048;-65
2023/01/14 09:19:29;;;;;;;25.90;3.65;;;6.10;99.90;;;;;;5083063;28;20043;-65
2023/01/14 09:21:55;;;;;;;21.17;3.25;;;6.10;99.90;;;;;;5083956;28;20028;-65
2023/01/14 09:24:20;;;;;;;26.00;3.45;;;6.10;99.90;;;;;;5074963;28;20040;-65
2023/01/14 09:26:46;;;;;;;18.52;3.45;;;6.20;99.90;;;;;;5079029;28;20039;-64
2023/01/14 09:29:12;;;;;;;19.52;3.05;;;6.20;99.90;;;;;;5085036;28;20124;-64
2023/01/14 09:31:38;;;;;;;22.98;3.90;;;6.20;99.90;;;;;;5082733;28;20482;-66
2023/01/14 09:34:03;;;;;;;21.05;3.33;;;6.10;99.90;;;;;;5065393;28;20094;-64
2023/01/14 09:36:29;;;;;;;20.88;3.03;;;6.20;99.90;;;;;;5080401;28;20036;-64
2023/01/14 09:38:56;;;;;;;23.35;3.17;;;6.20;99.90;;;;;;5077875;28;20039;-64
2023/01/14 09:41:55;;;;;;;19.50;2.95;;;6.20;99.90;;;;;;5075761;28;20032;-64
2023/01/14 09:44:23;;;;;;;18.02;2.72;;;6.20;99.90;;;;;;5066716;28;20126;-65
2023/01/14 09:46:50;;;;;;;13.70;2.92;;;6.30;99.90;;;;;;5086683;28;20036;-64
2023/01/14 09:49:22;;;;;;;14.18;2.63;;;6.30;99.90;;;;;;5083753;28;20044;-64
2023/01/14 09:52:06;;;;;;;13.13;2.30;;;6.30;99.90;;;;;;5081167;28;20317;-64
2023/01/14 09:54:32;;;;;;;10.25;2.03;;;6.30;99.90;;;;;;5077811;28;20656;-65
2023/01/14 09:57:16;;;;;;;18.33;2.50;;;6.30;99.90;;;;;;5062428;28;20165;-65
2023/01/14 10:00:14;;;;;;;14.27;2.30;;;6.40;99.90;;;;;;5080868;28;20523;-65
2023/01/14 10:02:54;;;;;;;18.92;3.55;;;6.40;99.90;;;;;;5054738;28;20111;-64
2023/01/14 10:05:32;;;;;;;13.07;2.90;;;6.40;99.90;;;;;;5077782;28;20044;-65
2023/01/14 10:08:02;;;;;;;15.23;2.47;;;6.40;99.90;;;;;;5080096;28;20097;-64
2023/01/14 10:10:39;;;;;;;18.52;2.78;;;6.50;99.90;;;;;;5081114;28;20029;-64
2023/01/14 10:13:16;;;;;;;13.23;2.28;;;6.50;99.90;;;;;;5077113;28;20039;-64
2023/01/14 10:15:57;;;;;;;17.40;2.85;;;6.50;99.90;;;;;;5065251;28;20045;-64
2023/01/14 10:18:31;;;;;;;17.35;2.50;;;6.50;99.90;;;;;;5080021;28;20506;-65
2023/01/14 10:21:03;;;;;;;17.10;3.22;;;6.50;99.90;;;;;;5061912;28;20047;-65
2023/01/14 10:23:40;;;;;;;8.65;2.10;;;6.60;99.90;;;;;;5070937;28;20040;-65
2023/01/14 10:26:15;;;;;;;8.18;2.03;;;6.60;99.90;;;;;;5075553;28;20414;-65
2023/01/14 10:28:42;;;;;;;10.50;2.28;;;6.60;99.90;;;;;;5069646;28;20413;-65
2023/01/14 10:31:16;;;;;;;12.65;1.95;;;6.60;99.90;;;;;;5049953;28;20040;-65
2023/01/14 10:33:42;;;;;;;15.23;2.03;;;6.60;99.90;;;;;;5078704;28;20048;-65
2023/01/14 10:36:18;;;;;;;6.65;1.65;;;6.70;99.90;;;;;;5055512;28;20044;-65
2023/01/14 10:38:45;;;;;;;18.38;3.05;;;6.70;99.90;;;;;;5054239;28;20115;-66
2023/01/14 10:41:12;;;;;;;10.50;2.35;;;6.70;99.90;;;;;;5077660;28;20040;-65
2023/01/14 10:43:42;;;;;;;6.80;1.63;;;6.80;99.90;;;;;;5075460;28;20048;-65
2023/01/14 10:46:19;;;;;;;9.05;1.50;;;6.80;99.90;;;;;;5071538;28;20144;-65
2023/01/14 10:49:00;;;;;;;10.70;1.90;;;6.80;99.90;;;;;;5069569;28;20041;-65
2023/01/14 10:51:47;;;;;;;4.63;1.80;;;6.90;99.90;;;;;;5071214;28;20033;-65
2023/01/14 10:54:16;;;;;;;10.02;2.42;;;6.90;99.90;;;;;;5074429;28;20126;-65
2023/01/14 10:56:46;;;;;;;6.88;1.52;;;6.90;99.90;;;;;;5068058;28;20043;-65
2023/01/14 10:59:35;;;;;;;6.55;1.52;;;6.90;99.90;;;;;;5078428;28;20045;-65
2023/01/14 11:02:01;;;;;;;6.40;2.55;;;7.00;99.90;;;;;;5071546;28;20074;-65
2023/01/14 11:04:30;;;;;;;14.90;3.25;;;7.00;99.90;;;;;;5083605;28;20054;-65
2023/01/14 11:06:57;;;;;;;10.13;2.85;;;7.00;99.90;;;;;;5084548;28;20055;-65
2023/01/14 11:09:32;;;;;;;9.43;2.60;;;7.00;99.90;;;;;;5077612;28;20044;-65
2023/01/14 11:11:58;;;;;;;7.72;2.22;;;7.10;99.90;;;;;;5073091;28;20515;-65
2023/01/14 11:14:27;;;;;;;11.35;2.17;;;7.10;99.90;;;;;;5074641;28;20044;-65
2023/01/14 11:16:53;;;;;;;6.43;2.03;;;7.10;99.90;;;;;;5085526;28;20506;-65
2023/01/14 11:19:21;;;;;;;6.80;1.75;;;7.10;99.90;;;;;;5052272;28;20040;-65
2023/01/14 11:21:53;;;;;;;8.40;2.15;;;7.10;99.90;;;;;;5081684;28;20126;-64
2023/01/14 11:24:29;;;;;;;4.28;1.48;;;7.10;99.90;;;;;;5079070;28;20059;-64
2023/01/14 11:27:20;;;;;;;12.35;2.50;;;7.20;99.90;;;;;;5060250;28;20078;-65
2023/01/14 11:29:53;;;;;;;6.18;1.27;;;7.20;99.90;;;;;;5081510;28;20044;-64
2023/01/14 11:32:24;;;;;;;5.82;1.95;;;7.20;99.90;;;;;;5067035;28;20115;-65
2023/01/14 11:35:15;;;;;;;9.20;1.83;;;7.20;99.90;;;;;;5081911;28;20037;-65
2023/01/14 11:37:53;;;;;;;7.95;2.03;;;7.20;99.90;;;;;;5078839;28;20210;-64
2023/01/14 11:41:28;;;;;;;9.52;1.58;;;7.20;99.90;;;;;;5078021;28;20119;-64
2023/01/14 11:43:11;;;;;;;8.60;1.48;;;7.20;99.90;;;;;;5086048;28;20036;-65
2023/01/14 11:45:37;;;;;;;6.22;1.60;;;7.20;99.90;;;;;;5082612;28;20498;-64
2023/01/14 11:48:23;;;;;;;5.70;1.55;;;7.20;99.90;;;;;;5062753;28;20119;-65
2023/01/14 11:50:58;;;;;;;4.90;1.20;;;7.20;99.90;;;;;;5080103;28;20564;-65
2023/01/14 11:53:26;;;;;;;;;;;7.20;99.90;;;;;;5079531;28;20327;-64
2023/01/14 11:55:57;;;;;;;6.20;1.65;;;7.20;99.90;;;;;;5079509;28;19925;-65
2023/01/14 11:58:29;;;;;;;4.57;1.40;;;7.30;99.90;;;;;;5063045;28;20031;-64
2023/01/14 12:01:04;;;;;;;6.10;1.50;;;7.30;99.90;;;;;;5082422;28;20036;-65
2023/01/14 12:03:35;;;;;;;7.68;1.55;;;7.30;99.90;;;;;;5082796;28;20342;-65
2023/01/14 12:06:06;;;;;;;6.35;1.58;;;7.40;99.90;;;;;;5079737;28;20193;-67
2023/01/14 12:08:35;;;;;;;5.47;1.20;;;7.40;99.90;;;;;;5080205;28;20067;-67
2023/01/14 12:11:03;;;;;;;5.80;1.15;;;7.40;99.90;;;;;;5081218;28;20063;-67
2023/01/14 12:16:52;;;;;;;3.67;1.05;;;7.50;99.90;;;;;;5073520;28;20102;-67
2023/01/14 12:19:31;;;;;;;8.65;1.42;;;7.50;99.90;;;;;;5079513;28;20128;-67
2023/01/14 12:22:26;;;;;;;4.30;1.23;;;7.50;99.90;;;;;;5065814;28;20028;-67
2023/01/14 12:25:02;;;;;;;5.18;1.08;;;7.50;99.90;;;;;;5084006;28;20465;-67
2023/01/14 12:27:46;;;;;;;4.68;1.35;;;7.60;99.90;;;;;;5078469;28;20040;-67
2023/01/14 12:30:12;;;;;;;3.85;0.90;;;7.60;99.90;;;;;;5071185;28;20044;-66
2023/01/14 12:32:41;;;;;;;5.50;1.20;;;7.60;99.90;;;;;;5082869;28;20043;-66
2023/01/14 12:35:13;;;;;;;8.52;1.30;;;7.70;99.90;;;;;;5081227;28;20044;-66
2023/01/14 12:37:59;;;;;;;5.57;1.00;;;7.70;99.90;;;;;;5062139;28;20044;-67
2023/01/14 12:46:18;;;;;;;2.60;0.55;;;7.80;99.90;;;;;;5079143;28;20035;-67
2023/01/14 12:48:44;;;;;;;4.30;0.93;;;7.90;99.90;;;;;;5082993;28;20035;-67
2023/01/14 12:51:16;;;;;;;6.22;0.88;;;8.00;99.90;;;;;;5081202;28;20087;-67
2023/01/14 12:53:44;;;;;;;3.85;0.80;;;8.00;99.90;;;;;;5082715;28;20041;-67
2023/01/14 12:56:31;;;;;;;2.90;0.88;;;8.10;99.90;;;;;;5079471;28;20089;-67
2023/01/14 12:59:29;;;;;;;4.40;0.57;;;8.20;99.90;;;;;;5080177;28;20564;-67
2023/01/14 13:02:02;;;;;;;4.30;0.98;;;8.20;99.90;;;;;;5083748;28;20033;-67
2023/01/14 13:04:37;;;;;;;3.60;0.95;;;8.30;99.90;;;;;;5084817;28;20107;-68
2023/01/14 13:07:05;;;;;;;5.95;1.10;;;8.20;99.90;;;;;;5081658;28;20121;-68
2023/01/14 13:09:45;;;;;;;6.15;1.45;;;8.30;99.90;;;;;;5083407;28;20122;-67
2023/01/14 13:12:31;;;;;;;5.68;0.98;;;8.30;99.90;;;;;;5080532;28;20399;-68
2023/01/14 13:14:59;;;;;;;2.85;0.88;;;8.30;99.90;;;;;;5062531;28;20668;-68
2023/01/14 13:17:33;;;;;;;2.80;0.70;;;8.40;99.90;;;;;;5076943;28;20119;-68
2023/01/14 13:20:19;;;;;;;2.65;0.65;;;8.40;99.90;;;;;;5082583;28;20047;-67
2023/01/14 13:22:50;;;;;;;3.95;0.85;;;8.40;99.90;;;;;;5076131;28;20036;-68
2023/01/14 13:25:36;;;;;;;3.88;0.70;;;8.50;99.90;;;;;;5082479;28;20372;-68
2023/01/14 13:28:12;;;;;;;2.33;0.60;;;8.50;99.90;;;;;;5065195;28;20044;-68
2023/01/14 13:30:49;;;;;;;3.22;0.47;;;8.50;99.90;;;;;;5069530;28;20363;-68
2023/01/14 13:33:24;;;;;;;2.88;1.10;;;8.60;99.90;;;;;;5067948;28;20679;-68
2023/01/14 13:36:09;;;;;;;;;;;8.60;99.90;;;;;;5069485;28;20043;-68
2023/01/14 13:38:39;;;;;;;1.85;0.45;;;8.70;99.90;;;;;;5079600;28;19939;-67
2023/01/14 13:41:09;;;;;;;2.28;0.60;;;8.70;99.90;;;;;;5060885;28;20044;-68
2023/01/14 13:43:50;;;;;;;2.70;0.45;;;8.70;99.90;;;;;;5080970;28;20044;-68